Time;durP1;ratioP1;P1;durP2;ratioP2;P2;SDS_P1;SDS_P2;PMS_P1;PMS_P2;Temp;Humidity;BMP_temperature;BMP_pressure;BME280_temperature;BME280_humidity;BME280_pressure;Samples;Min_cycle;Max_cycle;Signal;HPM_P1;HPM_P2
2023/05/01 00:01:04;;;;;;;2.55;0.93;;;11.20;99.90;;;;;;4880955;29;20044;-88
2023/05/01 00:03:31;;;;;;;3.30;1.25;;;11.30;99.90;;;;;;4890675;29;20048;-89
2023/05/01 00:06:03;;;;;;;1.92;1.20;;;11.30;99.90;;;;;;4891786;29;20493;-89
2023/05/01 00:08:30;;;;;;;3.88;1.10;;;11.30;99.90;;;;;;4895341;29;20474;-87
2023/05/01 00:11:01;;;;;;;3.03;1.30;;;11.40;99.90;;;;;;4899092;29;20462;-87
2023/05/01 00:13:27;;;;;;;2.90;1.15;;;11.30;99.90;;;;;;4895327;29;20040;-88
2023/05/01 00:15:56;;;;;;;3.50;2.33;;;11.20;99.90;;;;;;4890772;29;20047;-86
2023/05/01 00:18:22;;;;;;;1.77;0.80;;;11.30;96.20;;;;;;4880402;29;20386;-87
2023/05/01 00:20:48;;;;;;;2.35;0.95;;;11.40;93.00;;;;;;4896618;29;20185;-87
2023/05/01 00:23:14;;;;;;;3.20;0.82;;;11.50;88.30;;;;;;4878594;29;20033;-90
2023/05/01 00:25:41;;;;;;;3.78;1.13;;;11.50;76.40;;;;;;4864042;29;20055;-85
2023/05/01 00:28:07;;;;;;;2.67;1.15;;;11.50;73.30;;;;;;4881355;29;20410;-89
2023/05/01 00:30:34;;;;;;;1.27;0.70;;;11.60;63.80;;;;;;4877855;29;20045;-87
2023/05/01 00:33:00;;;;;;;3.60;1.15;;;11.60;57.30;;;;;;4883553;29;20467;-88
2023/05/01 00:35:29;;;;;;;1.70;1.10;;;11.70;55.40;;;;;;4877123;29;20049;-90
2023/05/01 00:37:55;;;;;;;3.28;1.10;;;11.70;51.00;;;;;;4870882;29;20044;-89
2023/05/01 00:40:21;;;;;;;1.48;1.05;;;11.70;47.40;;;;;;4889688;29;20048;-88
2023/05/01 00:42:48;;;;;;;1.70;1.15;;;11.70;45.20;;;;;;4868068;29;20573;-88
2023/05/01 00:45:15;;;;;;;2.03;1.00;;;11.60;53.50;;;;;;4895493;29;20048;-89
2023/05/01 00:47:41;;;;;;;1.17;0.90;;;11.60;53.20;;;;;;4876540;29;20041;-89
2023/05/01 00:50:08;;;;;;;3.40;0.80;;;11.60;55.10;;;;;;4897583;29;20415;-88
2023/05/01 00:52:34;;;;;;;2.72;1.00;;;11.60;55.60;;;;;;4880261;29;20049;-89
2023/05/01 00:55:01;;;;;;;2.60;0.90;;;11.50;57.10;;;;;;4897595;29;20040;-88
2023/05/01 00:57:27;;;;;;;1.88;1.20;;;11.50;59.30;;;;;;4897476;29;20471;-88
2023/05/01 00:59:53;;;;;;;2.60;1.42;;;11.50;61.90;;;;;;4880431;29;20064;-86
2023/05/01 01:02:20;;;;;;;5.70;1.50;;;11.50;61.10;;;;;;4879544;29;20470;-87
2023/05/01 01:04:47;;;;;;;3.28;1.20;;;11.50;60.40;;;;;;4889256;29;20044;-88
2023/05/01 01:07:34;;;;;;;4.97;1.25;;;11.60;54.60;;;;;;4881252;29;20052;-88
2023/05/01 01:10:12;;;;;;;1.23;0.98;;;11.60;53.90;;;;;;4887294;29;20044;-87
2023/05/01 01:13:17;;;;;;;2.40;1.20;;;11.50;54.30;;;;;;4878006;29;20059;-87
2023/05/01 01:16:02;;;;;;;2.92;1.27;;;11.50;52.80;;;;;;4891982;29;20040;-90
2023/05/01 01:18:47;;;;;;;2.83;1.15;;;11.50;53.10;;;;;;4894246;29;20054;-88
2023/05/01 01:21:27;;;;;;;3.00;1.52;;;11.50;54.60;;;;;;4884811;29;20063;-87
2023/05/01 01:24:19;;;;;;;2.35;1.00;;;11.50;56.50;;;;;;4895625;29;20065;-89
2023/05/01 01:27:30;;;;;;;3.33;1.40;;;11.50;58.70;;;;;;4872483;29;20049;-89
2023/05/01 01:30:10;;;;;;;2.08;1.38;;;11.50;60.00;;;;;;4902563;29;20059;-87
2023/05/01 01:33:00;;;;;;;2.35;1.30;;;11.40;62.00;;;;;;4901247;29;20036;-90
2023/05/01 01:35:28;;;;;;;2.13;1.17;;;11.50;61.40;;;;;;4887854;29;20045;-89
2023/05/01 01:38:09;;;;;;;4.60;1.38;;;11.40;59.50;;;;;;4861271;29;20051;-89
2023/05/01 01:41:06;;;;;;;4.68;1.80;;;11.40;66.50;;;;;;4896984;29;20474;-89
2023/05/01 01:43:39;;;;;;;4.90;1.23;;;11.30;69.40;;;;;;4871703;29;20040;-89
2023/05/01 01:46:07;;;;;;;2.40;1.50;;;11.20;76.80;;;;;;4896896;29;20056;-89
2023/05/01 01:48:37;;;;;;;3.45;1.70;;;11.20;85.00;;;;;;4889306;29;20044;-88
2023/05/01 01:51:11;;;;;;;1.67;1.23;;;11.10;86.40;;;;;;4903611;29;20040;-89
2023/05/01 01:53:38;;;;;;;7.60;4.80;;;11.10;88.50;;;;;;4882696;29;20040;-88
2023/05/01 01:56:06;;;;;;;2.42;1.50;;;11.10;89.90;;;;;;4895897;29;20040;-89
2023/05/01 01:58:35;;;;;;;2.38;1.63;;;11.10;88.40;;;;;;4882363;29;20064;-89
2023/05/01 02:01:05;;;;;;;1.65;1.20;;;11.00;91.30;;;;;;4889143;29;20055;-89
2023/05/01 02:03:32;;;;;;;3.03;1.83;;;11.10;87.40;;;;;;4889776;29;20364;-88
2023/05/01 02:06:00;;;;;;;6.63;1.80;;;11.00;90.50;;;;;;4888628;29;20056;-89
2023/05/01 02:08:29;;;;;;;4.80;1.90;;;11.00;89.40;;;;;;4898595;29;20040;-89
2023/05/01 02:10:58;;;;;;;3.22;1.27;;;11.10;84.50;;;;;;4866745;29;20052;-88
2023/05/01 02:13:28;;;;;;;5.75;3.13;;;11.10;83.90;;;;;;4875202;29;20403;-88
2023/05/01 02:15:59;;;;;;;2.05;1.40;;;11.10;84.50;;;;;;4880026;29;20041;-88
2023/05/01 02:18:27;;;;;;;2.75;1.20;;;11.20;78.70;;;;;;4893045;29;20048;-89
2023/05/01 02:20:57;;;;;;;7.13;1.52;;;11.20;75.90;;;;;;4868685;29;20280;-88
2023/05/01 02:23:25;;;;;;;3.72;1.60;;;11.20;73.50;;;;;;4900016;29;20044;-87
2023/05/01 02:25:53;;;;;;;1.85;1.45;;;11.20;73.70;;;;;;4866589;29;20227;-87
2023/05/01 02:28:23;;;;;;;2.13;1.30;;;11.20;75.40;;;;;;4899476;29;20032;-87
2023/05/01 02:30:49;;;;;;;1.73;1.40;;;11.20;94.60;;;;;;4896382;29;20048;-87
2023/05/01 02:33:15;;;;;;;5.22;1.50;;;11.20;99.90;;;;;;4899210;29;20419;-87
2023/05/01 02:35:43;;;;;;;2.53;1.42;;;11.20;99.90;;;;;;4878076;29;20072;-87
2023/05/01 02:38:11;;;;;;;2.50;1.60;;;11.20;97.40;;;;;;4861523;29;20041;-87
2023/05/01 02:40:39;;;;;;;3.95;1.73;;;11.20;99.60;;;;;;4878771;29;20467;-87
2023/05/01 02:43:09;;;;;;;3.53;1.90;;;11.20;99.90;;;;;;4899216;29;20039;-86
2023/05/01 02:45:39;;;;;;;4.03;1.65;;;11.10;99.90;;;;;;4878056;29;20072;-87
2023/05/01 02:48:08;;;;;;;3.58;1.50;;;11.00;99.90;;;;;;4873304;29;20041;-83
2023/05/01 02:50:39;;;;;;;3.40;1.70;;;10.90;99.90;;;;;;4889092;29;20529;-86
2023/05/01 02:53:07;;;;;;;2.50;1.33;;;10.70;99.90;;;;;;4888608;29;20067;-84
2023/05/01 02:55:42;;;;;;;2.95;1.58;;;10.60;99.90;;;;;;4895896;29;20059;-84
2023/05/01 02:58:14;;;;;;;2.45;1.83;;;10.50;99.90;;;;;;4886344;29;20044;-84
2023/05/01 03:00:41;;;;;;;5.50;1.70;;;10.50;99.90;;;;;;4887236;29;20053;-84
2023/05/01 03:03:07;;;;;;;2.97;1.70;;;10.50;99.90;;;;;;4877275;29;20052;-84
2023/05/01 03:05:33;;;;;;;5.57;1.88;;;10.40;99.90;;;;;;4897429;29;20032;-84
2023/05/01 03:07:59;;;;;;;4.05;1.70;;;10.40;99.90;;;;;;4892443;29;20041;-86
2023/05/01 03:10:25;;;;;;;2.40;1.77;;;10.40;99.90;;;;;;4893639;29;20045;-84
2023/05/01 03:12:52;;;;;;;3.53;1.85;;;10.30;99.90;;;;;;4875726;29;20036;-85
2023/05/01 03:15:18;;;;;;;2.47;1.92;;;10.20;99.90;;;;;;4897222;29;20045;-84
2023/05/01 03:17:44;;;;;;;4.22;1.80;;;10.10;99.90;;;;;;4865105;29;20044;-85
2023/05/01 03:20:11;;;;;;;3.30;2.00;;;10.00;99.90;;;;;;4879484;29;20055;-84
2023/05/01 03:22:38;;;;;;;2.72;2.40;;;10.00;99.90;;;;;;4858129;29;20052;-86
2023/05/01 03:25:08;;;;;;;3.50;1.77;;;10.00;99.90;;;;;;4879250;29;20511;-84
2023/05/01 03:27:37;;;;;;;2.97;1.90;;;9.90;99.90;;;;;;4878678;29;20048;-85
2023/05/01 03:30:04;;;;;;;6.55;3.15;;;9.80;99.90;;;;;;4895497;29;20044;-84
2023/05/01 03:32:34;;;;;;;2.38;1.75;;;9.80;99.90;;;;;;4880585;29;20051;-84
2023/05/01 03:35:03;;;;;;;2.72;2.13;;;9.70;99.90;;;;;;4880515;29;20486;-85
2023/05/01 03:37:30;;;;;;;3.53;2.10;;;9.70;99.90;;;;;;4890270;29;20053;-85
2023/05/01 03:39:56;;;;;;;2.67;2.03;;;9.60;99.90;;;;;;4896072;29;20265;-84
2023/05/01 03:42:37;;;;;;;;;;;9.60;99.90;;;;;;4897183;29;20049;-86
2023/05/01 03:45:10;;;;;;;4.50;2.90;;;9.60;99.90;;;;;;4888700;29;19911;-83
2023/05/01 03:47:36;;;;;;;6.35;2.47;;;9.50;99.90;;;;;;4888536;29;20048;-86
2023/05/01 03:50:03;;;;;;;5.72;1.98;;;9.50;99.90;;;;;;4892983;29;20138;-84
2023/05/01 03:52:31;;;;;;;4.43;2.08;;;9.40;99.90;;;;;;4879993;29;20044;-84
2023/05/01 03:54:57;;;;;;;2.72;1.92;;;9.40;99.90;;;;;;4875444;29;20047;-85
2023/05/01 03:57:33;;;;;;;2.85;2.33;;;9.30;99.90;;;;;;4878665;29;20052;-85
2023/05/01 03:59:59;;;;;;;3.65;2.53;;;9.30;99.90;;;;;;4878203;29;20067;-84
2023/05/01 04:02:26;;;;;;;2.97;2.25;;;9.30;99.90;;;;;;4872138;29;20127;-84
2023/05/01 04:04:52;;;;;;;4.60;2.65;;;9.30;99.90;;;;;;4892899;29;20032;-85
2023/05/01 04:07:19;;;;;;;5.97;2.55;;;9.40;99.90;;;;;;4873546;29;20041;-84
2023/05/01 04:09:48;;;;;;;4.40;2.72;;;9.40;99.90;;;;;;4875472;29;20463;-84
2023/05/01 04:12:14;;;;;;;6.78;3.58;;;9.40;99.90;;;;;;4880164;29;20040;-84
2023/05/01 04:14:43;;;;;;;3.90;2.58;;;9.30;99.90;;;;;;4895387;29;20383;-85
2023/05/01 04:17:09;;;;;;;3.85;2.70;;;9.30;99.90;;;;;;4879610;29;20513;-84
2023/05/01 04:19:36;;;;;;;13.95;6.18;;;9.30;99.90;;;;;;4889593;29;20076;-84
2023/05/01 04:22:04;;;;;;;8.35;3.20;;;9.30;99.90;;;;;;4879603;29;20494;-84
2023/05/01 04:24:31;;;;;;;6.47;3.80;;;9.30;99.90;;;;;;4874750;29;20053;-85
2023/05/01 04:26:58;;;;;;;5.63;3.00;;;9.30;99.90;;;;;;4874860;29;20473;-85
2023/05/01 04:29:24;;;;;;;4.70;2.83;;;9.30;99.90;;;;;;4893757;29;20033;-83
2023/05/01 04:31:51;;;;;;;3.10;2.25;;;9.40;99.90;;;;;;4879079;29;20089;-83
2023/05/01 04:34:17;;;;;;;5.63;2.78;;;9.40;99.90;;;;;;4887520;29;20037;-83
2023/05/01 04:36:46;;;;;;;6.75;3.03;;;9.40;99.90;;;;;;4860544;29;20052;-84
2023/05/01 04:39:12;;;;;;;3.30;2.58;;;9.50;99.90;;;;;;4894861;29;20482;-84
2023/05/01 04:41:39;;;;;;;3.53;2.63;;;9.50;99.90;;;;;;4879393;29;20053;-87
2023/05/01 04:44:05;;;;;;;5.18;2.97;;;9.50;99.90;;;;;;4863348;29;20049;-85
2023/05/01 04:46:32;;;;;;;3.90;2.72;;;9.60;99.90;;;;;;4879380;29;20056;-84
2023/05/01 04:48:58;;;;;;;3.90;2.78;;;9.60;99.90;;;;;;4878308;29;20134;-84
2023/05/01 04:51:24;;;;;;;6.10;2.70;;;9.60;99.90;;;;;;4878665;29;20150;-85
2023/05/01 04:53:51;;;;;;;4.75;2.42;;;9.70;99.90;;;;;;4863687;29;20049;-85
2023/05/01 04:56:21;;;;;;;4.28;2.65;;;9.70;99.90;;;;;;4875241;29;20040;-83
2023/05/01 04:58:53;;;;;;;3.65;2.78;;;9.80;99.90;;;;;;4864701;29;20048;-85
2023/05/01 05:01:22;;;;;;;4.90;2.85;;;9.80;99.90;;;;;;4865339;29;20398;-84
2023/05/01 05:03:49;;;;;;;3.03;2.35;;;9.80;99.90;;;;;;4880693;29;20463;-85
2023/05/01 05:06:15;;;;;;;3.92;2.78;;;9.80;99.90;;;;;;4880072;29;20414;-84
2023/05/01 05:08:41;;;;;;;6.20;3.10;;;9.80;99.90;;;;;;4894668;29;20056;-90
2023/05/01 05:11:09;;;;;;;6.03;3.00;;;9.80;99.90;;;;;;4878730;29;20409;-84
2023/05/01 05:13:54;;;;;;;4.53;3.00;;;9.80;99.90;;;;;;4890925;29;20060;-84
2023/05/01 05:16:20;;;;;;;6.40;2.60;;;9.80;99.90;;;;;;4864298;29;20049;-84
2023/05/01 05:18:47;;;;;;;4.53;2.97;;;9.90;99.90;;;;;;4895587;29;20477;-85
2023/05/01 05:21:13;;;;;;;3.17;2.10;;;9.90;99.90;;;;;;4896475;29;20044;-84
2023/05/01 05:23:46;;;;;;;8.82;2.95;;;9.90;99.90;;;;;;4884291;29;20049;-85
2023/05/01 05:26:12;;;;;;;3.45;2.08;;;9.90;99.90;;;;;;4867309;29;20033;-85
2023/05/01 05:28:39;;;;;;;5.57;2.80;;;10.00;99.90;;;;;;4876236;29;20052;-86
2023/05/01 05:31:06;;;;;;;3.58;2.50;;;10.10;99.90;;;;;;4865030;29;20493;-85
2023/05/01 05:33:33;;;;;;;3.38;2.33;;;10.10;99.90;;;;;;4862602;29;20402;-84
2023/05/01 05:36:00;;;;;;;4.25;2.70;;;10.10;99.90;;;;;;4875496;29;20052;-85
2023/05/01 05:38:32;;;;;;;4.95;2.72;;;10.20;99.90;;;;;;4879536;29;20406;-85
2023/05/01 05:40:59;;;;;;;3.25;2.83;;;10.30;99.90;;;;;;4872124;29;20086;-81
2023/05/01 05:43:26;;;;;;;4.18;2.58;;;10.50;99.90;;;;;;4878920;29;20048;-81
2023/05/01 05:45:56;;;;;;;4.05;2.53;;;10.60;99.90;;;;;;4893695;29;20047;-82
2023/05/01 05:48:23;;;;;;;6.43;2.80;;;10.70;99.90;;;;;;4863420;29;20486;-82
2023/05/01 05:50:51;;;;;;;4.80;2.78;;;10.70;99.90;;;;;;4875871;29;20339;-81
2023/05/01 05:53:18;;;;;;;3.53;2.72;;;10.80;99.90;;;;;;4886645;29;20045;-81
2023/05/01 05:55:48;;;;;;;5.80;3.22;;;10.80;99.90;;;;;;4871747;29;20060;-84
2023/05/01 05:58:18;;;;;;;3.45;2.58;;;10.80;99.90;;;;;;4880416;29;20056;-79
2023/05/01 06:00:47;;;;;;;3.63;2.08;;;10.90;99.90;;;;;;4880483;29;20056;-83
2023/05/01 06:03:13;;;;;;;4.28;2.70;;;11.00;99.90;;;;;;4897953;29;20037;-81
2023/05/01 06:05:44;;;;;;;3.83;2.40;;;11.00;99.90;;;;;;4883603;29;20049;-83
2023/05/01 06:08:10;;;;;;;4.90;3.00;;;11.20;99.90;;;;;;4881208;29;20048;-84
2023/05/01 06:10:38;;;;;;;3.92;2.67;;;11.40;99.90;;;;;;4880193;29;20044;-81
2023/05/01 06:13:09;;;;;;;4.15;2.50;;;11.40;99.90;;;;;;4895804;29;20036;-83
2023/05/01 06:15:39;;;;;;;5.43;2.83;;;11.50;99.90;;;;;;4881632;29;20111;-82
2023/05/01 06:18:06;;;;;;;4.18;2.80;;;11.60;99.90;;;;;;4896042;29;20855;-82
2023/05/01 06:20:32;;;;;;;4.43;2.97;;;11.60;99.90;;;;;;4895446;29;20032;-82
2023/05/01 06:22:59;;;;;;;7.60;2.78;;;11.80;99.90;;;;;;4887189;29;20041;-82
2023/05/01 06:25:32;;;;;;;3.83;2.38;;;11.80;99.90;;;;;;4891357;29;20048;-83
2023/05/01 06:27:58;;;;;;;7.93;3.10;;;11.80;99.90;;;;;;4891714;29;20409;-81
2023/05/01 06:30:25;;;;;;;3.85;2.42;;;11.90;99.90;;;;;;4893158;29;20052;-83
2023/05/01 06:32:51;;;;;;;4.80;2.58;;;12.10;99.90;;;;;;4857668;29;20048;-83
2023/05/01 06:35:19;;;;;;;4.40;2.47;;;12.30;99.90;;;;;;4872139;29;20043;-83
2023/05/01 06:37:45;;;;;;;3.92;2.40;;;12.50;99.90;;;;;;4895128;29;20036;-83
2023/05/01 06:40:12;;;;;;;5.55;2.67;;;12.60;99.90;;;;;;4879623;29;20069;-82
2023/05/01 06:42:39;;;;;;;3.03;2.20;;;12.80;99.90;;;;;;4895411;29;20044;-83
2023/05/01 06:45:06;;;;;;;4.10;2.63;;;12.90;99.90;;;;;;4872657;29;20060;-82
2023/05/01 06:47:33;;;;;;;4.57;2.17;;;13.00;99.90;;;;;;4880930;29;20049;-82
2023/05/01 06:50:00;;;;;;;2.42;1.65;;;13.00;99.90;;;;;;4894517;29;20037;-82
2023/05/01 06:52:26;;;;;;;6.57;2.38;;;13.00;99.90;;;;;;4880703;29;20060;-82
2023/05/01 06:54:52;;;;;;;6.82;3.08;;;12.80;99.90;;;;;;4873180;29;20483;-81
2023/05/01 06:57:19;;;;;;;4.40;3.10;;;12.90;99.90;;;;;;4879239;29;20045;-81
2023/05/01 06:59:45;;;;;;;5.35;2.08;;;13.00;99.90;;;;;;4895738;29;20032;-84
2023/05/01 07:02:11;;;;;;;4.45;2.47;;;13.10;99.90;;;;;;4873212;29;20056;-81
2023/05/01 07:04:37;;;;;;;3.20;2.45;;;13.20;99.90;;;;;;4879914;29;20051;-81
2023/05/01 07:07:03;;;;;;;2.92;1.98;;;13.30;99.90;;;;;;4876294;29;20044;-83
2023/05/01 07:09:30;;;;;;;4.20;2.13;;;13.40;99.90;;;;;;4863346;29;20382;-82
2023/05/01 07:11:57;;;;;;;10.25;2.63;;;13.40;98.40;;;;;;4874771;29;20044;-82
2023/05/01 07:14:23;;;;;;;4.03;2.10;;;13.40;99.90;;;;;;4889113;29;20041;-82
2023/05/01 07:16:49;;;;;;;3.17;2.05;;;13.50;99.90;;;;;;4871636;29;20049;-82
2023/05/01 07:19:15;;;;;;;5.15;2.40;;;13.40;99.90;;;;;;4873799;29;20045;-81
2023/05/01 07:21:42;;;;;;;3.38;2.25;;;13.60;96.40;;;;;;4895924;29;20047;-81
2023/05/01 07:24:08;;;;;;;4.10;2.60;;;13.80;91.00;;;;;;4895027;29;20033;-81
2023/05/01 07:26:34;;;;;;;3.92;1.92;;;13.70;90.60;;;;;;4880678;29;20045;-80
2023/05/01 07:29:01;;;;;;;3.78;2.20;;;13.90;60.70;;;;;;4890078;29;20498;-84
2023/05/01 07:31:27;;;;;;;4.82;2.20;;;13.80;48.00;;;;;;4896403;29;20045;-81
2023/05/01 07:33:56;;;;;;;5.07;2.30;;;13.80;49.60;;;;;;4896242;29;20035;-82
2023/05/01 07:36:22;;;;;;;6.15;1.92;;;14.20;32.80;;;;;;4895620;29;20040;-82
2023/05/01 07:38:49;;;;;;;5.07;2.40;;;14.10;34.70;;;;;;4893064;29;20048;-83
2023/05/01 07:41:15;;;;;;;6.85;2.33;;;14.10;36.20;;;;;;4859673;29;20060;-82
2023/05/01 07:43:42;;;;;;;5.65;2.90;;;14.20;36.30;;;;;;4888585;29;20044;-82
2023/05/01 07:46:08;;;;;;;4.32;2.92;;;14.50;32.70;;;;;;4894035;29;20033;-82
2023/05/01 07:48:34;;;;;;;7.05;2.85;;;14.20;44.80;;;;;;4879611;29;20063;-83
2023/05/01 07:51:02;;;;;;;3.88;2.28;;;14.20;91.20;;;;;;4893851;29;20041;-83
2023/05/01 07:53:28;;;;;;;5.15;3.22;;;14.30;91.60;;;;;;4895633;29;20039;-83
2023/05/01 07:56:04;;;;;;;4.70;3.20;;;14.40;82.30;;;;;;4889089;29;20052;-83
2023/05/01 07:58:31;;;;;;;3.60;2.35;;;14.40;94.30;;;;;;4890990;29;20060;-83
2023/05/01 08:00:57;;;;;;;4.53;2.25;;;14.50;81.00;;;;;;4892914;29;20036;-83
2023/05/01 08:03:23;;;;;;;4.45;2.75;;;14.50;59.40;;;;;;4895046;29;20045;-82
2023/05/01 08:05:49;;;;;;;3.88;2.88;;;14.50;53.00;;;;;;4895190;29;20391;-83
2023/05/01 08:08:19;;;;;;;8.13;3.70;;;14.30;64.10;;;;;;4895095;29;20033;-82
2023/05/01 08:10:46;;;;;;;4.35;2.50;;;14.20;74.40;;;;;;4878855;29;20044;-82
2023/05/01 08:13:12;;;;;;;3.20;2.22;;;14.30;71.00;;;;;;4879729;29;20044;-82
2023/05/01 08:15:41;;;;;;;3.03;2.22;;;14.50;51.30;;;;;;4883094;29;20044;-83
2023/05/01 08:18:08;;;;;;;4.63;2.55;;;14.80;30.30;;;;;;4893081;29;20043;-83
2023/05/01 08:20:37;;;;;;;4.15;2.63;;;15.20;26.20;;;;;;4881864;29;20486;-83
2023/05/01 08:23:03;;;;;;;7.07;2.47;;;15.20;9.10;;;;;;4895972;29;20402;-82
2023/05/01 08:25:31;;;;;;;4.75;2.60;;;15.20;8.40;;;;;;4879797;29;20037;-82
2023/05/01 08:27:57;;;;;;;3.72;2.45;;;15.30;12.60;;;;;;4885684;29;20342;-82
2023/05/01 08:30:23;;;;;;;4.07;2.35;;;15.50;7.70;;;;;;4887099;29;20036;-82
2023/05/01 08:32:49;;;;;;;6.45;3.22;;;15.60;1.00;;;;;;4894779;29;20478;-82
2023/05/01 08:35:16;;;;;;;3.78;2.92;;;15.50;1.00;;;;;;4877864;29;20045;-81
2023/05/01 08:37:42;;;;;;;3.40;2.30;;;15.50;1.00;;;;;;4877291;29;20495;-81
2023/05/01 08:40:09;;;;;;;3.35;2.47;;;15.20;1.00;;;;;;4893783;29;20041;-77
2023/05/01 08:42:36;;;;;;;3.88;2.70;;;15.10;1.00;;;;;;4894729;29;20033;-81
2023/05/01 08:45:06;;;;;;;3.45;2.70;;;15.20;3.20;;;;;;4892082;29;20032;-81
2023/05/01 08:47:36;;;;;;;5.68;2.50;;;15.40;1.00;;;;;;4893458;29;20044;-81
2023/05/01 08:50:03;;;;;;;4.30;2.55;;;15.70;1.00;;;;;;4877463;29;20053;-82
2023/05/01 08:52:32;;;;;;;7.63;3.58;;;15.60;1.00;;;;;;4885000;29;20053;-81
2023/05/01 08:55:00;;;;;;;6.47;4.25;;;15.50;1.00;;;;;;4884839;29;20379;-82
2023/05/01 08:57:29;;;;;;;4.00;3.20;;;15.70;1.00;;;;;;4872770;29;20502;-82
2023/05/01 08:59:57;;;;;;;5.65;3.63;;;16.20;1.00;;;;;;4876989;29;20048;-80
2023/05/01 09:02:24;;;;;;;4.38;3.38;;;16.20;1.00;;;;;;4894131;29;20048;-82
2023/05/01 09:04:51;;;;;;;6.72;3.65;;;16.70;1.00;;;;;;4894277;29;20036;-82
2023/05/01 09:07:17;;;;;;;9.02;3.60;;;17.00;1.00;;;;;;4893703;29;20032;-82
2023/05/01 09:09:45;;;;;;;4.82;3.20;;;17.00;1.00;;;;;;4890642;29;20032;-82
2023/05/01 09:12:22;;;;;;;5.13;3.50;;;17.30;1.00;;;;;;4872250;29;20032;-82
2023/05/01 09:14:50;;;;;;;6.82;3.50;;;16.90;1.00;;;;;;4890724;29;20368;-87
2023/05/01 09:17:20;;;;;;;6.03;3.47;;;17.50;1.00;;;;;;4879430;29;20052;-83
2023/05/01 09:19:47;;;;;;;5.35;4.05;;;17.90;1.00;;;;;;4875493;29;20045;-84
2023/05/01 09:22:14;;;;;;;5.78;4.05;;;16.80;1.00;;;;;;4891367;29;20045;-86
2023/05/01 09:24:41;;;;;;;6.55;3.40;;;16.80;1.00;;;;;;4895434;29;20057;-88
2023/05/01 09:27:08;;;;;;;5.13;2.95;;;16.80;1.00;;;;;;4866123;29;20048;-87
2023/05/01 09:29:42;;;;;;;4.20;2.85;;;17.30;1.00;;;;;;4895817;29;20028;-87
2023/05/01 09:32:19;;;;;;;4.85;3.05;;;17.70;1.00;;;;;;4882155;29;20379;-89
2023/05/01 09:34:46;;;;;;;4.10;2.88;;;17.70;1.00;;;;;;4878266;29;20041;-89
2023/05/01 09:37:27;;;;;;;4.10;2.55;;;18.00;1.00;;;;;;4882817;29;20041;-89
2023/05/01 09:40:06;;;;;;;3.45;2.70;;;18.60;1.00;;;;;;4881077;29;20049;-89
2023/05/01 09:42:34;;;;;;;5.97;3.53;;;19.40;1.00;;;;;;4883241;29;20395;-90
2023/05/01 09:45:03;;;;;;;4.30;2.90;;;20.80;1.00;;;;;;4898431;29;20028;-91
2023/05/01 09:47:30;;;;;;;5.60;3.08;;;21.30;1.00;;;;;;4885189;29;20037;-88
2023/05/01 09:49:58;;;;;;;5.15;3.35;;;21.80;1.00;;;;;;4907315;29;20040;-90
2023/05/01 09:52:33;;;;;;;5.68;3.13;;;22.00;1.00;;;;;;4891882;29;20044;-89
2023/05/01 09:55:16;;;;;;;4.70;3.33;;;21.80;1.00;;;;;;4888547;29;20056;-89
2023/05/01 09:57:45;;;;;;;3.88;2.78;;;21.20;1.00;;;;;;4895929;29;20052;-86
2023/05/01 10:00:13;;;;;;;5.25;3.40;;;20.50;1.00;;;;;;4884330;29;20036;-86
2023/05/01 10:02:49;;;;;;;5.28;2.88;;;19.40;1.00;;;;;;4892840;29;20053;-88
2023/05/01 10:05:17;;;;;;;4.68;2.85;;;18.90;1.00;;;;;;4880730;29;20036;-90
2023/05/01 10:08:01;;;;;;;3.97;3.25;;;19.30;1.00;;;;;;4898060;29;20029;-88
2023/05/01 10:10:27;;;;;;;6.18;3.42;;;20.10;1.00;;;;;;4881462;29;20394;-89
2023/05/01 10:12:53;;;;;;;4.70;2.60;;;20.80;1.00;;;;;;4882025;29;20393;-88
2023/05/01 10:15:20;;;;;;;3.33;2.83;;;20.80;1.00;;;;;;4898336;29;20037;-87
2023/05/01 10:17:50;;;;;;;4.20;2.38;;;20.50;1.00;;;;;;4891598;29;20040;-89
2023/05/01 10:20:16;;;;;;;4.45;3.10;;;20.00;1.00;;;;;;4896298;29;20154;-88
2023/05/01 10:22:43;;;;;;;6.25;3.50;;;19.40;1.00;;;;;;4886845;29;20064;-87
2023/05/01 10:25:12;;;;;;;4.50;3.40;;;18.80;1.00;;;;;;4897363;29;20037;-87
2023/05/01 10:27:40;;;;;;;6.05;3.20;;;19.00;1.00;;;;;;4871932;29;20040;-88
2023/05/01 10:30:07;;;;;;;3.35;2.67;;;19.10;1.00;;;;;;4890392;29;20033;-88
2023/05/01 10:32:35;;;;;;;3.85;2.92;;;19.40;1.00;;;;;;4897303;29;20045;-89
2023/05/01 10:35:08;;;;;;;4.82;3.30;;;19.60;1.00;;;;;;4881216;29;20052;-88
2023/05/01 10:37:42;;;;;;;5.68;2.90;;;19.50;1.00;;;;;;4882320;29;20055;-89
2023/05/01 10:40:36;;;;;;;4.30;3.00;;;19.40;1.00;;;;;;4879201;29;20045;-88
2023/05/01 10:43:12;;;;;;;3.80;2.65;;;19.00;1.00;;;;;;4887906;29;20056;-89
2023/05/01 10:45:38;;;;;;;7.00;2.85;;;19.20;1.00;;;;;;4882279;29;20049;-87
2023/05/01 10:48:06;;;;;;;4.38;3.55;;;19.10;1.00;;;;;;4881653;29;20046;-90
2023/05/01 10:50:33;;;;;;;5.65;3.38;;;18.80;1.00;;;;;;4898555;29;20041;-89
2023/05/01 10:53:09;;;;;;;6.68;3.60;;;18.70;1.00;;;;;;4878804;29;20048;-90
2023/05/01 10:55:43;;;;;;;3.83;2.95;;;18.50;1.00;;;;;;4880458;29;20044;-90
2023/05/01 10:58:33;;;;;;;3.92;2.70;;;18.60;1.00;;;;;;4882882;29;20048;-90
2023/05/01 11:01:31;;;;;;;5.80;3.20;;;19.40;1.00;;;;;;4865850;29;20051;-88
2023/05/01 11:04:00;;;;;;;5.10;3.45;;;18.90;1.00;;;;;;4896079;29;20072;-89
2023/05/01 11:06:27;;;;;;;4.63;2.80;;;18.60;1.00;;;;;;4882729;29;20032;-89
2023/05/01 11:08:53;;;;;;;4.28;2.50;;;18.90;1.00;;;;;;4891761;29;20051;-90
2023/05/01 11:11:22;;;;;;;3.80;3.28;;;18.80;1.00;;;;;;4878342;29;20036;-91
2023/05/01 11:13:59;;;;;;;4.05;2.92;;;18.90;1.00;;;;;;4888918;29;20056;-87
2023/05/01 11:16:44;;;;;;;4.97;2.83;;;19.00;1.00;;;;;;4877622;29;20401;-89
2023/05/01 11:19:19;;;;;;;4.60;3.08;;;19.00;1.00;;;;;;4879573;29;20055;-89
2023/05/01 11:21:46;;;;;;;4.18;2.67;;;19.00;1.00;;;;;;4880012;29;20417;-89
2023/05/01 11:24:12;;;;;;;7.15;2.83;;;19.30;1.00;;;;;;4895950;29;20068;-89
2023/05/01 11:26:41;;;;;;;4.55;2.38;;;19.70;1.00;;;;;;4880967;29;20036;-89
2023/05/01 11:29:11;;;;;;;5.85;2.90;;;19.90;1.00;;;;;;4880073;29;20047;-89
2023/05/01 11:31:38;;;;;;;3.55;2.63;;;19.20;1.00;;;;;;4879801;29;20048;-91
2023/05/01 11:34:09;;;;;;;3.95;2.47;;;19.10;1.00;;;;;;4881331;29;20037;-88
2023/05/01 11:36:48;;;;;;;6.95;2.83;;;19.20;1.00;;;;;;4891551;29;20048;-88
2023/05/01 11:39:16;;;;;;;4.20;2.50;;;19.40;1.00;;;;;;4889974;29;20036;-89
2023/05/01 11:41:42;;;;;;;3.70;2.58;;;19.60;1.00;;;;;;4877643;29;20289;-89
2023/05/01 11:44:11;;;;;;;4.07;2.60;;;19.40;1.00;;;;;;4896878;29;20379;-90
2023/05/01 11:46:38;;;;;;;3.80;2.65;;;19.60;1.00;;;;;;4863381;29;20048;-92
2023/05/01 11:49:04;;;;;;;4.78;2.97;;;20.30;1.00;;;;;;4897941;29;20459;-90
2023/05/01 11:51:31;;;;;;;3.70;3.03;;;20.60;1.00;;;;;;4878879;29;20040;-90
2023/05/01 11:54:02;;;;;;;5.63;3.45;;;20.70;1.00;;;;;;4879473;29;20475;-91
2023/05/01 11:56:34;;;;;;;5.47;3.28;;;20.10;1.00;;;;;;4879665;29;20040;-88
2023/05/01 11:59:15;;;;;;;4.20;2.47;;;19.40;1.00;;;;;;4879793;29;20045;-91
2023/05/01 12:01:43;;;;;;;3.65;2.80;;;19.20;1.00;;;;;;4875509;29;20489;-89
2023/05/01 12:04:26;;;;;;;3.58;2.85;;;19.40;1.00;;;;;;4894372;29;20394;-87
2023/05/01 12:06:54;;;;;;;4.10;2.40;;;19.10;1.00;;;;;;4892404;29;20044;-89
2023/05/01 12:09:25;;;;;;;3.10;2.30;;;19.20;1.00;;;;;;4893871;29;20029;-88
2023/05/01 12:11:52;;;;;;;7.25;2.70;;;19.80;1.00;;;;;;4896811;29;20428;-90
2023/05/01 12:14:20;;;;;;;4.65;2.60;;;20.30;1.00;;;;;;4864903;29;20048;-89
2023/05/01 12:16:46;;;;;;;5.10;3.00;;;20.40;1.00;;;;;;4894693;29;20036;-89
2023/05/01 12:19:14;;;;;;;3.25;2.42;;;20.00;1.00;;;;;;4880001;29;20036;-90
2023/05/01 12:21:40;;;;;;;4.10;2.40;;;19.60;1.00;;;;;;4880236;29;20056;-89
2023/05/01 12:24:16;;;;;;;3.78;2.88;;;19.70;1.00;;;;;;4893267;29;20048;-89
2023/05/01 12:26:44;;;;;;;3.33;2.53;;;19.70;1.00;;;;;;4880634;29;20041;-89
2023/05/01 12:29:11;;;;;;;4.55;2.70;;;19.90;1.00;;;;;;4879379;29;20033;-87
2023/05/01 12:31:46;;;;;;;3.80;2.35;;;20.00;1.00;;;;;;4892996;29;20037;-89
2023/05/01 12:34:12;;;;;;;3.70;2.45;;;20.00;1.00;;;;;;4889349;29;20048;-91
2023/05/01 12:36:38;;;;;;;5.25;3.08;;;20.10;1.00;;;;;;4894545;29;20047;-88
2023/05/01 12:39:11;;;;;;;6.45;2.13;;;20.00;1.00;;;;;;4879816;29;20036;-89
2023/05/01 12:41:43;;;;;;;2.67;2.28;;;19.70;1.00;;;;;;4878941;29;20036;-85
2023/05/01 12:44:25;;;;;;;3.40;2.50;;;19.70;1.00;;;;;;4879607;29;20060;-89
2023/05/01 12:47:03;;;;;;;6.40;2.60;;;19.40;1.00;;;;;;4879712;29;20059;-90
2023/05/01 12:49:31;;;;;;;4.65;2.85;;;19.60;1.00;;;;;;4893300;29;20044;-84
2023/05/01 12:52:00;;;;;;;5.25;3.53;;;20.00;1.00;;;;;;4870285;29;20045;-87
2023/05/01 12:54:36;;;;;;;5.57;3.20;;;20.60;1.00;;;;;;4897100;29;20378;-86
2023/05/01 12:57:10;;;;;;;3.75;2.65;;;20.70;1.00;;;;;;4876383;29;20529;-86
2023/05/01 12:59:39;;;;;;;5.30;3.20;;;20.50;1.00;;;;;;4892370;29;20032;-83
2023/05/01 13:02:07;;;;;;;4.05;2.10;;;20.50;1.00;;;;;;4895076;29;20048;-85
2023/05/01 13:04:33;;;;;;;3.15;2.10;;;20.40;1.00;;;;;;4883590;29;20033;-85